Time;durP1;ratioP1;P1;durP2;ratioP2;P2;SDS_P1;SDS_P2;PMS_P1;PMS_P2;Temp;Humidity;BMP_temperature;BMP_pressure;BME280_temperature;BME280_humidity;BME280_pressure;Samples;Min_cycle;Max_cycle;Signal;HPM_P1;HPM_P2
2021/10/02 00:34:21;;;;;;;10.57;2.70;;;;;;;;;;5054301;28;20049;-79
2021/10/02 00:44:37;;;;;;;17.67;2.65;;;;;;;;;;5054114;28;20044;-79
2021/10/02 00:44:42;;;;;;;13.60;2.57;;;;;;;;;;5053755;28;20040;-79
2021/10/02 00:47:09;;;;;;;8.57;2.33;;;;;;;;;;5052592;28;20037;-79
2021/10/02 00:49:35;;;;;;;12.27;2.40;;;;;;;;;;5054144;28;20357;-79
2021/10/02 00:52:00;;;;;;;9.00;2.50;;;;;;;;;;5054137;28;20021;-78
2021/10/02 00:54:26;;;;;;;12.10;2.85;;;;;;;;;;5053961;28;20031;-79
2021/10/02 00:56:51;;;;;;;6.95;2.58;;;;;;;;;;5053883;28;20036;-79
2021/10/02 00:59:16;;;;;;;17.17;3.45;;;;;;;;;;5053637;28;20070;-79
2021/10/02 01:01:52;;;;;;;11.77;2.53;;;;;;;;;;5053868;28;20033;-79
2021/10/02 01:04:17;;;;;;;12.93;2.00;;;;;;;;;;5053855;28;20049;-79
2021/10/02 01:06:49;;;;;;;14.35;1.77;;;;;;;;;;5053729;28;20506;-79
2021/10/02 01:09:17;;;;;;;20.05;2.38;;;;;;;;;;5053767;28;20021;-79
2021/10/02 01:11:42;;;;;;;14.57;2.15;;;;;;;;;;5053395;28;20021;-79
2021/10/02 01:14:13;;;;;;;18.02;1.88;;;;;;;;;;5053692;28;20040;-80
2021/10/02 01:16:41;;;;;;;24.02;2.00;;;;;;;;;;5051511;28;20047;-80
2021/10/02 01:19:36;;;;;;;10.63;1.73;;;;;;;;;;5052902;28;20029;-80
2021/10/02 01:22:10;;;;;;;14.88;1.90;;;;;;;;;;5052211;28;20033;-79
2021/10/02 01:24:54;;;;;;;14.75;1.40;;;;;;;;;;5053486;28;20044;-79
2021/10/02 01:27:39;;;;;;;20.63;1.58;;;;;;;;;;5053484;28;20037;-79
2021/10/02 01:30:09;;;;;;;25.92;2.63;;;;;;;;;;5032450;28;20029;-79
2021/10/02 01:32:44;;;;;;;14.98;1.58;;;;;;;;;;5033336;28;20120;-79
2021/10/02 01:48:14;;;;;;;14.50;1.90;;;;;;;;;;5053073;28;20540;-79
2021/10/02 01:50:40;;;;;;;5.70;1.40;;;;;;;;;;5053118;28;20032;-79
2021/10/02 01:53:06;;;;;;;23.88;2.20;;;;;;;;;;5053210;28;20040;-79
2021/10/02 01:55:33;;;;;;;8.73;1.65;;;;;;;;;;5053109;28;20025;-79
2021/10/02 01:58:03;;;;;;;9.25;2.58;;;;;;;;;;5052805;28;20470;-79
2021/10/02 02:00:29;;;;;;;10.15;1.88;;;;;;;;;;5052832;28;20028;-80
2021/10/02 02:02:57;;;;;;;11.48;1.90;;;;;;;;;;5053389;28;20386;-79
2021/10/02 02:05:24;;;;;;;20.02;1.88;;;;;;;;;;5053070;28;20032;-80
2021/10/02 02:07:52;;;;;;;9.02;1.15;;;;;;;;;;5051818;28;20021;-79
2021/10/02 02:10:18;;;;;;;9.82;1.75;;;;;;;;;;5053444;28;20044;-79
2021/10/02 02:12:44;;;;;;;11.25;1.75;;;;;;;;;;5053149;28;20040;-79
2021/10/02 02:15:11;;;;;;;10.00;1.50;;;;;;;;;;5053007;28;20029;-79
2021/10/02 02:17:37;;;;;;;18.25;1.75;;;;;;;;;;5053092;28;20040;-79
2021/10/02 02:20:03;;;;;;;18.80;1.75;;;;;;;;;;5053084;28;20036;-79
2021/10/02 02:22:28;;;;;;;17.17;2.55;;;;;;;;;;5052904;28;20025;-79
2021/10/02 02:24:54;;;;;;;13.45;1.63;;;;;;;;;;5052663;28;20025;-79
2021/10/02 02:27:19;;;;;;;17.15;1.60;;;;;;;;;;5052935;28;20032;-79
2021/10/02 02:29:44;;;;;;;21.48;1.80;;;;;;;;;;5052456;28;20029;-79
2021/10/02 02:32:10;;;;;;;17.90;1.80;;;;;;;;;;5052980;28;20104;-79
2021/10/02 02:34:35;;;;;;;17.05;1.85;;;;;;;;;;5052620;28;20045;-79
2021/10/02 02:37:01;;;;;;;10.07;1.50;;;;;;;;;;5052620;28;20036;-79
2021/10/02 02:39:27;;;;;;;11.50;1.58;;;;;;;;;;5051238;28;20021;-79
2021/10/02 02:41:52;;;;;;;16.67;1.63;;;;;;;;;;5052687;28;20029;-79
2021/10/02 02:44:18;;;;;;;11.38;1.92;;;;;;;;;;5052788;28;20103;-79
2021/10/02 02:46:46;;;;;;;14.98;1.90;;;;;;;;;;5052721;28;20021;-79
2021/10/02 02:49:18;;;;;;;3.92;1.42;;;;;;;;;;5052692;28;20128;-79
2021/10/02 02:51:48;;;;;;;15.73;1.58;;;;;;;;;;5052887;28;20029;-79
2021/10/02 02:54:25;;;;;;;16.90;1.73;;;;;;;;;;5052610;28;20033;-79
2021/10/02 02:56:51;;;;;;;9.40;1.60;;;;;;;;;;5052572;28;20028;-79
2021/10/02 02:59:28;;;;;;;12.60;1.70;;;;;;;;;;5053504;28;20056;-79
2021/10/02 03:01:55;;;;;;;21.77;2.47;;;;;;;;;;5056481;28;20370;-79
2021/10/02 03:04:20;;;;;;;9.60;1.92;;;;;;;;;;5056019;28;20428;-80
2021/10/02 03:06:48;;;;;;;18.42;2.25;;;;;;;;;;5056007;28;20024;-79
2021/10/02 03:09:14;;;;;;;13.95;1.60;;;;;;;;;;5056111;28;20104;-79
2021/10/02 03:11:40;;;;;;;15.88;1.38;;;;;;;;;;5055836;28;20482;-79
2021/10/02 03:14:05;;;;;;;12.40;1.50;;;;;;;;;;5055198;28;20021;-79
2021/10/02 03:16:31;;;;;;;13.35;1.65;;;;;;;;;;5055775;28;20029;-79
2021/10/02 03:18:59;;;;;;;10.02;1.60;;;;;;;;;;5055537;28;20025;-79
2021/10/02 03:21:25;;;;;;;13.32;1.60;;;;;;;;;;5055738;28;20104;-80
2021/10/02 03:23:51;;;;;;;12.25;1.40;;;;;;;;;;5055817;28;20094;-79
2021/10/02 03:26:17;;;;;;;15.30;1.85;;;;;;;;;;5055252;28;20113;-79
2021/10/02 03:28:43;;;;;;;13.98;1.20;;;;;;;;;;5055592;28;20028;-79
2021/10/02 03:31:08;;;;;;;23.38;1.65;;;;;;;;;;5055683;28;20160;-79
2021/10/02 03:33:34;;;;;;;15.43;1.60;;;;;;;;;;5055549;28;20069;-79
2021/10/02 03:35:59;;;;;;;11.65;1.63;;;;;;;;;;5055475;28;20489;-79
2021/10/02 03:38:25;;;;;;;17.85;1.70;;;;;;;;;;5055448;28;20380;-80
2021/10/02 03:40:50;;;;;;;14.30;1.35;;;;;;;;;;5055094;28;20070;-79
2021/10/02 03:43:16;;;;;;;8.27;1.40;;;;;;;;;;5055390;28;20020;-79
2021/10/02 03:45:41;;;;;;;9.93;1.02;;;;;;;;;;5054950;28;20021;-79
2021/10/02 03:48:07;;;;;;;19.25;1.70;;;;;;;;;;5055402;28;20033;-79
2021/10/02 03:50:32;;;;;;;13.05;1.50;;;;;;;;;;5054949;28;20048;-79
2021/10/02 03:52:58;;;;;;;13.30;1.50;;;;;;;;;;5055229;28;20049;-79
2021/10/02 03:55:23;;;;;;;8.35;1.30;;;;;;;;;;5055149;28;20037;-79
2021/10/02 03:57:48;;;;;;;20.85;2.50;;;;;;;;;;5055117;28;20020;-79
2021/10/02 04:00:14;;;;;;;14.25;1.90;;;;;;;;;;5055284;28;20025;-79
2021/10/02 04:02:39;;;;;;;5.78;1.33;;;;;;;;;;5055226;28;20037;-80
2021/10/02 04:05:05;;;;;;;13.93;1.73;;;;;;;;;;5055016;28;20024;-79
2021/10/02 04:07:30;;;;;;;7.35;1.40;;;;;;;;;;5055008;28;20070;-79
2021/10/02 04:09:56;;;;;;;11.80;1.83;;;;;;;;;;5054772;28;20041;-79
2021/10/02 04:12:21;;;;;;;17.50;1.60;;;;;;;;;;5054910;28;20056;-79
2021/10/02 04:14:48;;;;;;;13.48;1.55;;;;;;;;;;5054839;28;20029;-79
2021/10/02 04:17:14;;;;;;;9.73;1.50;;;;;;;;;;5054685;28;20059;-80
2021/10/02 04:19:39;;;;;;;15.27;1.55;;;;;;;;;;5054646;28;20449;-80
2021/10/02 04:22:05;;;;;;;11.23;1.20;;;;;;;;;;5054762;28;20048;-80
2021/10/02 04:24:30;;;;;;;13.10;1.45;;;;;;;;;;5054654;28;20090;-80
2021/10/02 04:26:58;;;;;;;12.45;1.40;;;;;;;;;;5054555;28;20025;-79
2021/10/02 04:29:25;;;;;;;13.30;1.67;;;;;;;;;;5054418;28;20457;-79
2021/10/02 04:31:50;;;;;;;18.30;1.58;;;;;;;;;;5054473;28;20075;-79
2021/10/02 04:34:15;;;;;;;20.58;1.50;;;;;;;;;;5054302;28;20045;-80
2021/10/02 04:36:40;;;;;;;13.40;1.67;;;;;;;;;;5054279;28;20078;-79
2021/10/02 04:39:06;;;;;;;15.93;2.22;;;;;;;;;;5054398;28;20071;-79
2021/10/02 04:41:31;;;;;;;16.75;1.30;;;;;;;;;;5053945;28;20048;-79
2021/10/02 04:43:56;;;;;;;10.35;1.00;;;;;;;;;;5054238;28;20013;-79
2021/10/02 04:46:22;;;;;;;13.23;2.00;;;;;;;;;;5054233;28;20078;-79
2021/10/02 04:48:47;;;;;;;9.70;1.70;;;;;;;;;;5054070;28;20021;-79
2021/10/02 04:51:13;;;;;;;11.20;1.20;;;;;;;;;;5054223;28;20413;-79
2021/10/02 04:53:38;;;;;;;14.68;1.70;;;;;;;;;;5053973;28;20412;-80
2021/10/02 04:56:12;;;;;;;7.45;1.08;;;;;;;;;;5053943;28;20028;-79
2021/10/02 04:58:38;;;;;;;19.58;2.40;;;;;;;;;;5054000;28;20021;-79
2021/10/02 05:01:04;;;;;;;16.13;1.52;;;;;;;;;;5054044;28;20135;-79
2021/10/02 05:03:29;;;;;;;8.32;1.02;;;;;;;;;;5053826;28;20045;-80
2021/10/02 05:05:54;;;;;;;16.88;1.65;;;;;;;;;;5053885;28;20492;-80
2021/10/02 05:08:20;;;;;;;22.70;1.50;;;;;;;;;;5053833;28;20497;-79
2021/10/02 05:10:45;;;;;;;17.98;1.98;;;;;;;;;;5053767;28;20020;-80
2021/10/02 05:13:10;;;;;;;20.77;2.35;;;;;;;;;;5053825;28;20404;-80
2021/10/02 05:15:36;;;;;;;14.60;1.23;;;;;;;;;;5053632;28;20045;-79
2021/10/02 05:18:02;;;;;;;17.83;2.13;;;;;;;;;;5053603;28;20025;-79
2021/10/02 05:20:28;;;;;;;18.73;2.22;;;;;;;;;;5053642;28;20064;-79
2021/10/02 05:22:54;;;;;;;19.08;1.73;;;;;;;;;;5052840;28;20485;-79
2021/10/02 05:25:19;;;;;;;18.90;1.50;;;;;;;;;;5053716;28;20028;-79
2021/10/02 05:27:44;;;;;;;3.78;1.13;;;;;;;;;;5053511;28;20099;-79
2021/10/02 05:30:09;;;;;;;11.32;1.77;;;;;;;;;;5053422;28;20033;-79
2021/10/02 05:32:35;;;;;;;13.68;1.27;;;;;;;;;;5053535;28;20124;-79
2021/10/02 05:35:00;;;;;;;12.02;2.65;;;;;;;;;;5053324;28;20465;-79
2021/10/02 05:37:25;;;;;;;15.32;1.98;;;;;;;;;;5053220;28;20041;-79
2021/10/02 05:39:51;;;;;;;16.75;1.42;;;;;;;;;;5052046;28;20028;-79
2021/10/02 05:42:16;;;;;;;5.95;1.42;;;;;;;;;;5053315;28;20025;-80
2021/10/02 05:44:42;;;;;;;14.45;1.48;;;;;;;;;;5052028;28;20075;-79
2021/10/02 05:47:07;;;;;;;10.63;1.50;;;;;;;;;;5053320;28;20047;-79
2021/10/02 05:49:33;;;;;;;19.23;1.40;;;;;;;;;;5053529;28;20057;-80
2021/10/02 05:51:58;;;;;;;4.93;1.25;;;;;;;;;;5053207;28;20060;-79
2021/10/02 05:54:23;;;;;;;18.08;1.75;;;;;;;;;;5052873;28;20021;-80
2021/10/02 05:56:48;;;;;;;12.05;1.33;;;;;;;;;;5053083;28;20103;-79
2021/10/02 05:59:14;;;;;;;17.75;1.77;;;;;;;;;;5053149;28;20469;-81
2021/10/02 06:01:39;;;;;;;9.38;1.38;;;;;;;;;;5053033;28;20103;-80
2021/10/02 06:04:04;;;;;;;10.18;1.70;;;;;;;;;;5053214;28;20462;-79
2021/10/02 06:06:30;;;;;;;21.00;1.38;;;;;;;;;;5053223;28;20037;-80
2021/10/02 06:08:55;;;;;;;12.55;1.75;;;;;;;;;;5053102;28;20031;-79
2021/10/02 06:11:20;;;;;;;21.55;1.73;;;;;;;;;;5053080;28;20396;-79
2021/10/02 06:13:47;;;;;;;12.77;1.40;;;;;;;;;;5053003;28;20037;-80
2021/10/02 06:16:12;;;;;;;10.05;1.27;;;;;;;;;;5053001;28;20584;-79
2021/10/02 06:18:37;;;;;;;11.98;1.50;;;;;;;;;;5052978;28;20017;-79
2021/10/02 06:21:03;;;;;;;14.90;1.30;;;;;;;;;;5051659;28;20057;-80
2021/10/02 06:23:28;;;;;;;12.80;1.15;;;;;;;;;;5053048;28;20075;-80
2021/10/02 06:25:54;;;;;;;12.75;1.65;;;;;;;;;;5052981;28;20025;-80
2021/10/02 06:28:20;;;;;;;18.98;2.22;;;;;;;;;;5052602;28;20067;-79
2021/10/02 06:30:45;;;;;;;7.22;1.40;;;;;;;;;;5052780;28;20063;-80
2021/10/02 06:33:10;;;;;;;20.98;2.50;;;;;;;;;;5052955;28;20055;-79
2021/10/02 06:35:36;;;;;;;12.63;1.40;;;;;;;;;;5055426;28;20118;-80
2021/10/02 06:38:01;;;;;;;15.10;1.60;;;;;;;;;;5056251;28;20436;-79
2021/10/02 06:40:26;;;;;;;17.05;1.70;;;;;;;;;;5056681;28;20017;-79
2021/10/02 06:42:52;;;;;;;11.05;1.60;;;;;;;;;;5056393;28;20033;-80
2021/10/02 06:45:18;;;;;;;15.70;1.60;;;;;;;;;;5056484;28;20021;-80
2021/10/02 06:47:43;;;;;;;21.27;2.05;;;;;;;;;;5056311;28;20031;-80
2021/10/02 06:50:08;;;;;;;18.10;1.90;;;;;;;;;;5056580;28;20063;-79
2021/10/02 06:52:34;;;;;;;22.30;1.92;;;;;;;;;;5056397;28;20025;-80
2021/10/02 06:54:59;;;;;;;10.25;1.33;;;;;;;;;;5056459;28;20070;-81
2021/10/02 06:57:24;;;;;;;12.73;1.63;;;;;;;;;;5056187;28;20061;-81
2021/10/02 06:59:50;;;;;;;19.58;2.05;;;;;;;;;;5056067;28;20029;-81
2021/10/02 07:02:15;;;;;;;9.75;1.40;;;;;;;;;;5055137;28;20026;-80
2021/10/02 07:04:42;;;;;;;10.98;1.42;;;;;;;;;;5056316;28;20033;-81
2021/10/02 07:07:07;;;;;;;14.45;1.65;;;;;;;;;;5056133;28;20017;-81
2021/10/02 07:09:33;;;;;;;11.07;1.55;;;;;;;;;;5056063;28;20415;-81
2021/10/02 07:11:58;;;;;;;20.00;2.35;;;;;;;;;;5055963;28;20033;-81
2021/10/02 07:14:23;;;;;;;15.48;2.20;;;;;;;;;;5055963;28;20017;-81
2021/10/02 07:16:49;;;;;;;10.18;1.60;;;;;;;;;;5055837;28;20029;-81
2021/10/02 07:19:14;;;;;;;12.73;1.90;;;;;;;;;;5055787;28;20043;-81
2021/10/02 07:21:40;;;;;;;18.38;2.45;;;;;;;;;;5055961;28;20049;-80
2021/10/02 07:24:05;;;;;;;11.98;2.30;;;;;;;;;;5054451;28;20025;-80
2021/10/02 07:26:30;;;;;;;21.83;2.40;;;;;;;;;;5055811;28;20033;-80
2021/10/02 07:28:56;;;;;;;14.55;2.17;;;;;;;;;;5055598;28;20061;-81
2021/10/02 07:31:21;;;;;;;10.68;2.50;;;;;;;;;;5055637;28;20020;-81
2021/10/02 07:33:48;;;;;;;11.88;2.67;;;;;;;;;;5055309;28;20033;-81
2021/10/02 07:36:13;;;;;;;19.50;3.03;;;;;;;;;;5057219;28;20035;-81
2021/10/02 07:38:39;;;;;;;16.17;1.75;;;;;;;;;;5072662;28;20372;-81
2021/10/02 07:41:05;;;;;;;18.90;2.47;;;;;;;;;;5075446;28;20534;-81
2021/10/02 07:43:31;;;;;;;13.52;1.60;;;;;;;;;;5075523;28;20381;-80
2021/10/02 07:45:57;;;;;;;25.38;2.00;;;;;;;;;;5073995;28;20024;-80
2021/10/02 07:48:26;;;;;;;20.08;1.60;;;;;;;;;;5075502;28;20050;-80
2021/10/02 07:50:54;;;;;;;16.17;1.65;;;;;;;;;;5075359;28;20028;-80
2021/10/02 07:53:20;;;;;;;14.82;1.63;;;;;;;;;;5075381;28;20369;-80
2021/10/02 07:55:48;;;;;;;9.55;1.80;;;;;;;;;;5075117;28;20043;-80
2021/10/02 07:58:13;;;;;;;14.02;1.80;;;;;;;;;;5074001;28;20071;-80
2021/10/02 08:00:38;;;;;;;21.45;2.15;;;;;;;;;;5074961;28;20021;-80
2021/10/02 08:03:04;;;;;;;18.60;2.20;;;;;;;;;;5075020;28;20033;-80
2021/10/02 08:05:29;;;;;;;17.98;2.45;;;;;;;;;;5075045;28;20025;-79
2021/10/02 08:07:54;;;;;;;13.45;2.38;;;;;;;;;;5075028;28;20520;-80
2021/10/02 08:10:21;;;;;;;10.98;2.05;;;;;;;;;;5074707;28;20061;-80
2021/10/02 08:12:46;;;;;;;14.50;2.35;;;;;;;;;;5074613;28;20469;-80
2021/10/02 08:15:12;;;;;;;20.65;2.80;;;;;;;;;;5074816;28;20047;-80
2021/10/02 08:17:38;;;;;;;13.20;2.55;;;;;;;;;;5074504;28;20040;-79
2021/10/02 08:20:08;;;;;;;22.45;2.90;;;;;;;;;;5049426;28;20024;-83
2021/10/02 08:22:35;;;;;;;14.48;2.70;;;;;;;;;;5053983;28;20024;-80
2021/10/02 08:25:01;;;;;;;13.98;2.90;;;;;;;;;;5054593;28;20037;-81
2021/10/02 08:27:27;;;;;;;16.52;2.90;;;;;;;;;;5054268;28;20051;-80
2021/10/02 08:29:53;;;;;;;15.43;2.75;;;;;;;;;;5054425;28;20366;-80
2021/10/02 08:32:18;;;;;;;11.40;2.78;;;;;;;;;;5054468;28;20025;-80
2021/10/02 08:34:44;;;;;;;10.88;2.90;;;;;;;;;;5054480;28;20052;-80
2021/10/02 08:37:09;;;;;;;11.48;2.90;;;;;;;;;;5054390;28;20033;-79
2021/10/02 08:39:34;;;;;;;11.30;3.05;;;;;;;;;;5054410;28;20044;-79
2021/10/02 08:42:00;;;;;;;20.20;2.42;;;;;;;;;;5054368;28;20021;-79
2021/10/02 08:44:26;;;;;;;18.27;3.20;;;;;;;;;;5054128;28;20028;-79
2021/10/02 08:46:52;;;;;;;15.35;4.45;;;;;;;;;;5054141;28;20060;-80
2021/10/02 08:49:17;;;;;;;14.57;3.97;;;;;;;;;;5054124;28;20025;-80
2021/10/02 08:51:47;;;;;;;28.08;3.25;;;;;;;;;;5054054;28;20021;-80
2021/10/02 08:54:13;;;;;;;21.42;3.25;;;;;;;;;;5054150;28;20025;-80
2021/10/02 08:56:38;;;;;;;16.25;2.65;;;;;;;;;;5053436;28;20124;-80
2021/10/02 08:59:04;;;;;;;12.30;2.38;;;;;;;;;;5054093;28;20055;-80
2021/10/02 09:01:29;;;;;;;12.90;2.28;;;;;;;;;;5044957;28;20039;-81
2021/10/02 09:03:54;;;;;;;15.43;2.85;;;;;;;;;;5052745;28;20064;-79
2021/10/02 09:06:20;;;;;;;25.60;3.55;;;;;;;;;;5052579;28;20017;-80
2021/10/02 09:08:46;;;;;;;14.45;3.08;;;;;;;;;;5041726;28;20037;-80
2021/10/02 09:11:11;;;;;;;13.50;2.60;;;;;;;;;;5051600;28;20021;-80
2021/10/02 09:13:36;;;;;;;22.88;3.80;;;;;;;;;;5049709;28;20032;-80
2021/10/02 09:16:01;;;;;;;17.95;2.92;;;;;;;;;;5050994;28;20072;-81
2021/10/02 09:18:27;;;;;;;13.15;2.30;;;;;;;;;;5045185;28;20074;-79
2021/10/02 09:21:05;;;;;;;15.77;2.70;;;;;;;;;;5051770;28;20024;-79
2021/10/02 09:23:32;;;;;;;18.88;2.92;;;;;;;;;;5053327;28;20025;-80
2021/10/02 09:25:59;;;;;;;25.02;3.47;;;;;;;;;;5053517;28;20085;-79
2021/10/02 09:28:35;;;;;;;12.80;2.00;;;;;;;;;;5053529;28;20122;-79
2021/10/02 09:31:04;;;;;;;20.17;2.92;;;;;;;;;;5053414;28;20106;-79
2021/10/02 09:33:29;;;;;;;14.70;2.67;;;;;;;;;;5053229;28;20029;-79
2021/10/02 09:35:55;;;;;;;15.75;2.25;;;;;;;;;;5051871;28;20062;-79
2021/10/02 09:38:21;;;;;;;13.02;2.63;;;;;;;;;;5047934;28;20021;-80
2021/10/02 09:40:50;;;;;;;20.67;2.92;;;;;;;;;;5052422;28;20033;-80
2021/10/02 09:43:15;;;;;;;17.67;2.72;;;;;;;;;;5052626;28;20025;-79
2021/10/02 09:45:41;;;;;;;17.02;2.40;;;;;;;;;;5052313;28;20507;-79
2021/10/02 09:48:11;;;;;;;16.92;1.85;;;;;;;;;;5052670;28;20033;-80
2021/10/02 09:50:41;;;;;;;14.43;2.60;;;;;;;;;;5052031;28;20029;-81
2021/10/02 09:53:11;;;;;;;28.38;2.78;;;;;;;;;;5052417;28;20091;-79
2021/10/02 09:55:37;;;;;;;28.48;3.17;;;;;;;;;;5052754;28;20085;-81
2021/10/02 09:58:07;;;;;;;25.95;3.63;;;;;;;;;;5053126;28;20021;-79
2021/10/02 10:00:34;;;;;;;14.80;3.03;;;;;;;;;;5044906;28;20026;-80
2021/10/02 10:03:03;;;;;;;13.90;3.00;;;;;;;;;;5051440;28;20044;-80
2021/10/02 10:05:31;;;;;;;11.68;2.45;;;;;;;;;;5050049;28;20066;-80
2021/10/02 10:07:58;;;;;;;20.30;4.07;;;;;;;;;;5053138;28;20044;-80
2021/10/02 10:10:24;;;;;;;30.65;4.03;;;;;;;;;;5057108;28;20025;-80
2021/10/02 10:12:50;;;;;;;16.52;2.85;;;;;;;;;;5056826;28;20036;-80
2021/10/02 10:15:33;;;;;;;18.15;2.63;;;;;;;;;;5055194;28;20123;-80
2021/10/02 10:17:58;;;;;;;18.80;3.67;;;;;;;;;;5056306;28;20463;-80
2021/10/02 10:20:32;;;;;;;28.17;4.82;;;;;;;;;;5056654;28;20071;-81
2021/10/02 10:22:58;;;;;;;15.75;3.70;;;;;;;;;;5056848;28;20033;-80
2021/10/02 10:25:23;;;;;;;19.90;3.55;;;;;;;;;;5056613;28;20051;-80
2021/10/02 10:27:48;;;;;;;24.70;3.53;;;;;;;;;;5057032;28;20025;-80
2021/10/02 10:30:24;;;;;;;18.80;2.53;;;;;;;;;;5056803;28;20039;-80
2021/10/02 10:33:03;;;;;;;12.07;2.03;;;;;;;;;;5056641;28;20024;-80
2021/10/02 10:35:35;;;;;;;9.45;1.98;;;;;;;;;;5056565;28;20055;-80
2021/10/02 10:38:00;;;;;;;11.02;2.10;;;;;;;;;;5053085;28;20095;-81
2021/10/02 10:40:26;;;;;;;18.88;3.55;;;;;;;;;;5051933;28;20481;-80
2021/10/02 10:42:52;;;;;;;9.50;2.30;;;;;;;;;;5052798;28;20403;-80
2021/10/02 10:45:18;;;;;;;19.52;2.63;;;;;;;;;;5053145;28;20066;-82
2021/10/02 10:47:44;;;;;;;8.10;1.88;;;;;;;;;;5051546;28;20029;-81
2021/10/02 10:50:09;;;;;;;17.95;2.92;;;;;;;;;;5052459;28;20021;-81
2021/10/02 10:52:36;;;;;;;12.10;2.03;;;;;;;;;;5053579;28;20096;-80
2021/10/02 10:55:01;;;;;;;11.98;2.35;;;;;;;;;;5052888;28;20055;-81
2021/10/02 10:57:37;;;;;;;17.90;3.08;;;;;;;;;;5052276;28;20037;-80
2021/10/02 11:00:07;;;;;;;12.85;1.80;;;;;;;;;;5052727;28;20096;-80
2021/10/02 11:02:44;;;;;;;16.23;2.63;;;;;;;;;;5052740;28;20079;-80
2021/10/02 11:05:28;;;;;;;10.95;1.77;;;;;;;;;;5053243;28;20525;-80
2021/10/02 11:07:53;;;;;;;16.15;2.65;;;;;;;;;;5052648;28;20355;-80
2021/10/02 11:10:37;;;;;;;16.83;3.15;;;;;;;;;;5052420;28;20055;-80
2021/10/02 11:13:02;;;;;;;14.25;4.07;;;;;;;;;;5052423;28;20025;-80
2021/10/02 11:15:28;;;;;;;15.95;5.57;;;;;;;;;;5052149;28;20024;-81
2021/10/02 11:17:53;;;;;;;17.08;4.38;;;;;;;;;;5052077;28;20037;-80
2021/10/02 11:20:21;;;;;;;12.30;3.20;;;;;;;;;;5051718;28;20040;-80
2021/10/02 11:23:13;;;;;;;29.20;3.40;;;;;;;;;;5052591;28;20028;-80
2021/10/02 11:25:42;;;;;;;16.25;3.08;;;;;;;;;;5050650;28;20051;-81
2021/10/02 11:28:22;;;;;;;14.05;2.60;;;;;;;;;;5052440;28;20017;-80
2021/10/02 11:30:51;;;;;;;20.58;3.42;;;;;;;;;;5052523;28;20056;-80
2021/10/02 11:33:33;;;;;;;11.43;2.15;;;;;;;;;;5051994;28;20021;-80
2021/10/02 11:35:58;;;;;;;13.93;2.47;;;;;;;;;;5050731;28;20429;-83
2021/10/02 11:38:34;;;;;;;9.20;2.50;;;;;;;;;;5052617;28;20071;-80
2021/10/02 11:41:00;;;;;;;11.23;2.40;;;;;;;;;;5052246;28;20454;-80
2021/10/02 11:43:27;;;;;;;19.08;2.55;;;;;;;;;;5052103;28;20107;-80
2021/10/02 11:45:54;;;;;;;14.20;3.40;;;;;;;;;;5052106;28;20036;-80
2021/10/02 11:48:20;;;;;;;16.58;3.38;;;;;;;;;;5051791;28;20512;-80
2021/10/02 11:51:06;;;;;;;7.65;2.47;;;;;;;;;;5051255;28;20024;-80
2021/10/02 11:53:39;;;;;;;12.52;3.58;;;;;;;;;;5051670;28;20090;-80
2021/10/02 11:56:10;;;;;;;15.98;3.45;;;;;;;;;;5052056;28;20123;-80
2021/10/02 11:58:40;;;;;;;14.02;2.42;;;;;;;;;;5050080;28;20036;-80
2021/10/02 12:01:05;;;;;;;9.70;2.22;;;;;;;;;;5051061;28;20016;-80
2021/10/02 12:03:31;;;;;;;10.20;2.50;;;;;;;;;;5051408;28;20396;-80
2021/10/02 12:05:58;;;;;;;12.02;1.90;;;;;;;;;;5051661;28;20033;-80
2021/10/02 12:08:24;;;;;;;8.63;1.95;;;;;;;;;;5051413;28;20099;-80
2021/10/02 12:11:03;;;;;;;11.57;1.90;;;;;;;;;;5050954;28;20432;-80
2021/10/02 12:13:39;;;;;;;8.40;1.77;;;;;;;;;;5051096;28;20040;-82
2021/10/02 12:16:09;;;;;;;9.20;2.08;;;;;;;;;;5051635;28;20381;-80
2021/10/02 12:18:41;;;;;;;8.35;2.45;;;;;;;;;;5051310;28;20117;-80
2021/10/02 12:21:09;;;;;;;10.88;1.67;;;;;;;;;;5051047;28;20037;-80
2021/10/02 12:23:48;;;;;;;6.72;1.83;;;;;;;;;;5051331;28;20055;-80
2021/10/02 12:26:13;;;;;;;7.32;1.90;;;;;;;;;;5050047;28;20456;-80
2021/10/02 12:28:38;;;;;;;8.68;2.05;;;;;;;;;;5050915;28;20116;-80
2021/10/02 12:31:04;;;;;;;6.80;2.03;;;;;;;;;;5050550;28;20032;-80
2021/10/02 12:33:29;;;;;;;18.83;4.03;;;;;;;;;;5051164;28;20025;-80
2021/10/02 12:35:54;;;;;;;11.52;2.67;;;;;;;;;;5049555;28;20049;-80
2021/10/02 12:38:22;;;;;;;15.40;3.40;;;;;;;;;;5050639;28;20480;-82
2021/10/02 12:40:51;;;;;;;10.43;2.50;;;;;;;;;;5050513;28;20414;-80
2021/10/02 12:43:17;;;;;;;15.70;3.20;;;;;;;;;;5051029;28;20033;-80
2021/10/02 12:45:42;;;;;;;10.70;1.98;;;;;;;;;;5050292;28;20055;-81
2021/10/02 12:48:14;;;;;;;11.15;2.30;;;;;;;;;;5043527;28;20108;-81
2021/10/02 12:50:42;;;;;;;12.43;2.03;;;;;;;;;;5049955;28;20029;-81
2021/10/02 12:53:08;;;;;;;8.05;2.17;;;;;;;;;;5050180;28;20128;-81
2021/10/02 12:55:33;;;;;;;7.10;2.33;;;;;;;;;;5051165;28;20099;-81
2021/10/02 12:57:59;;;;;;;10.77;2.40;;;;;;;;;;5050014;28;20044;-81
2021/10/02 13:00:25;;;;;;;9.93;3.22;;;;;;;;;;5048918;28;20028;-82
2021/10/02 13:02:52;;;;;;;10.85;2.28;;;;;;;;;;5049849;28;20024;-79
2021/10/02 13:05:19;;;;;;;10.60;2.10;;;;;;;;;;5050416;28;20063;-81
2021/10/02 13:08:03;;;;;;;7.57;2.03;;;;;;;;;;5049826;28;20032;-81
2021/10/02 13:10:33;;;;;;;5.80;1.80;;;;;;;;;;5050119;28;20036;-81
2021/10/02 13:12:59;;;;;;;9.50;1.80;;;;;;;;;;5049803;28;20032;-81
2021/10/02 13:15:25;;;;;;;9.05;2.50;;;;;;;;;;5049895;28;20025;-81
2021/10/02 13:18:08;;;;;;;7.38;2.25;;;;;;;;;;5049356;28;20041;-81
2021/10/02 13:20:35;;;;;;;9.00;1.67;;;;;;;;;;5049525;28;20384;-81
2021/10/02 13:23:05;;;;;;;7.70;1.65;;;;;;;;;;5049581;28;20029;-78
2021/10/02 13:25:30;;;;;;;4.03;1.20;;;;;;;;;;5049997;28;20032;-81
2021/10/02 13:27:56;;;;;;;7.97;1.67;;;;;;;;;;5043242;28;20017;-81
2021/10/02 13:30:33;;;;;;;5.82;1.50;;;;;;;;;;5050328;28;20047;-81
2021/10/02 13:33:03;;;;;;;6.50;2.00;;;;;;;;;;5049817;28;20044;-81
2021/10/02 13:35:30;;;;;;;4.32;1.48;;;;;;;;;;5049524;28;20040;-81
2021/10/02 13:37:55;;;;;;;4.97;1.50;;;;;;;;;;5050462;28;20041;-82
2021/10/02 13:40:32;;;;;;;8.75;1.90;;;;;;;;;;5050340;28;20028;-81
2021/10/02 13:42:59;;;;;;;5.78;2.10;;;;;;;;;;5049821;28;20478;-81
2021/10/02 13:45:32;;;;;;;5.07;2.00;;;;;;;;;;5050793;28;20086;-82
2021/10/02 13:48:00;;;;;;;5.40;2.45;;;;;;;;;;5049783;28;20025;-81
2021/10/02 13:50:25;;;;;;;29.85;13.00;;;;;;;;;;5049866;28;20469;-82
2021/10/02 13:52:51;;;;;;;7.68;4.05;;;;;;;;;;5049658;28;20063;-81
2021/10/02 13:55:16;;;;;;;8.38;4.13;;;;;;;;;;5049818;28;20384;-81
2021/10/02 13:57:41;;;;;;;6.57;2.53;;;;;;;;;;5049563;28;20056;-81
2021/10/02 14:00:07;;;;;;;10.70;3.22;;;;;;;;;;5049795;28;20423;-82
2021/10/02 14:02:32;;;;;;;7.90;2.92;;;;;;;;;;5050123;28;20108;-79
2021/10/02 14:04:58;;;;;;;4.88;2.75;;;;;;;;;;5047887;28;20425;-81
2021/10/02 14:07:23;;;;;;;9.88;3.17;;;;;;;;;;5050118;28;20031;-81
2021/10/02 14:09:48;;;;;;;8.15;2.38;;;;;;;;;;5049413;28;20051;-82
2021/10/02 14:12:14;;;;;;;5.70;2.95;;;;;;;;;;5047778;28;20041;-81
2021/10/02 14:14:41;;;;;;;8.95;3.35;;;;;;;;;;5050283;28;20063;-81
2021/10/02 14:17:07;;;;;;;6.53;3.20;;;;;;;;;;5049947;28;20178;-81
2021/10/02 14:19:32;;;;;;;14.05;2.90;;;;;;;;;;5049770;28;20557;-81
2021/10/02 14:21:57;;;;;;;5.82;2.28;;;;;;;;;;5049584;28;20017;-81
2021/10/02 14:24:23;;;;;;;7.85;2.67;;;;;;;;;;5049264;28;20025;-81
2021/10/02 14:26:48;;;;;;;4.95;2.00;;;;;;;;;;5050342;28;20109;-81
2021/10/02 14:29:14;;;;;;;5.70;2.60;;;;;;;;;;5049406;28;20025;-81
2021/10/02 14:31:39;;;;;;;2.10;1.15;;;;;;;;;;5049711;28;20029;-81
2021/10/02 14:34:07;;;;;;;2.65;1.30;;;;;;;;;;5049087;28;20037;-81
2021/10/02 14:36:32;;;;;;;7.45;2.15;;;;;;;;;;5049334;28;20040;-81
2021/10/02 14:39:01;;;;;;;14.65;5.30;;;;;;;;;;5049231;28;20033;-81
2021/10/02 14:41:27;;;;;;;8.90;3.20;;;;;;;;;;5049244;28;20029;-81
2021/10/02 14:43:52;;;;;;;8.27;3.45;;;;;;;;;;5049651;28;20027;-81
2021/10/02 14:46:18;;;;;;;4.82;2.35;;;;;;;;;;5049516;28;20075;-81
2021/10/02 14:48:43;;;;;;;7.63;1.48;;;;;;;;;;5049442;28;20062;-80
2021/10/02 14:51:10;;;;;;;6.80;1.38;;;;;;;;;;5048936;28;20025;-81
2021/10/02 14:53:36;;;;;;;2.08;1.42;;;;;;;;;;5048826;28;20060;-81
2021/10/02 14:56:02;;;;;;;5.82;1.63;;;;;;;;;;5051907;28;20043;-81
2021/10/02 14:58:28;;;;;;;5.05;2.10;;;;;;;;;;5051321;28;20131;-80
2021/10/02 15:00:54;;;;;;;3.33;1.50;;;;;;;;;;5052553;28;20017;-80
2021/10/02 15:03:21;;;;;;;1.65;1.15;;;;;;;;;;5052625;28;20070;-80
2021/10/02 15:05:46;;;;;;;2.78;1.17;;;;;;;;;;5052543;28;20025;-80
2021/10/02 15:08:12;;;;;;;5.38;1.48;;;;;;;;;;5052279;28;20039;-80
2021/10/02 15:10:38;;;;;;;3.40;1.10;;;;;;;;;;5053253;28;20033;-80
2021/10/02 15:13:03;;;;;;;3.42;1.40;;;;;;;;;;5052301;28;20028;-80
2021/10/02 15:15:29;;;;;;;1.95;1.23;;;;;;;;;;5050961;28;20033;-80
2021/10/02 15:17:55;;;;;;;4.97;1.60;;;;;;;;;;5052088;28;20150;-80
2021/10/02 15:20:20;;;;;;;9.43;2.80;;;;;;;;;;5052272;28;20454;-81
2021/10/02 15:22:50;;;;;;;7.30;2.25;;;;;;;;;;5052267;28;20090;-81
2021/10/02 15:25:16;;;;;;;3.42;1.40;;;;;;;;;;5053108;28;20044;-81